RRR6B LROP-LGAV
Flight info
| Callsign | RRR6B |
|---|---|
| Flight time | N/A |
| Altitude | 38000 |
| Route | POLUN DCT TIMUR/N0480F390 N181 NIKTI DCT KOROS/N0482F320 UT162 NEVRA |
| Aircraft | L101/H-SDFGHIRWXY/S |
Departure
| Time | 2026-04-30 13:47 |
|---|---|
| Airport | Bucharest Henri Coandă International Airport (LROP) |
Arrival
| Time | N/A |
|---|---|
| Airport | Athens Eleftherios Venizelos International Airport (LGAV) |
| Time | Latitude | Longitude | Altitude | Speed | Heading |
|---|---|---|---|---|---|
| 2026-04-30 13:13 | 44.56888 | 26.09038 | 317 ft | 0 kts | 174° |
| 2026-04-30 13:35 | 44.56894 | 26.09037 | 317 ft | 2 kts | 174° |
| 2026-04-30 13:35 | 44.56921 | 26.09034 | 318 ft | 3 kts | 166° |
| 2026-04-30 13:36 | 44.56956 | 26.09041 | 319 ft | 3 kts | 219° |
| 2026-04-30 13:36 | 44.56967 | 26.09057 | 319 ft | 0 kts | 250° |
| 2026-04-30 13:41 | 44.56966 | 26.09052 | 319 ft | 2 kts | 252° |
| 2026-04-30 13:41 | 44.56956 | 26.09001 | 320 ft | 9 kts | 255° |
| 2026-04-30 13:41 | 44.56943 | 26.08885 | 319 ft | 14 kts | 263° |
| 2026-04-30 13:42 | 44.56930 | 26.08727 | 317 ft | 18 kts | 264° |
| 2026-04-30 13:42 | 44.56938 | 26.08566 | 317 ft | 16 kts | 311° |
| 2026-04-30 13:42 | 44.57196 | 26.08510 | 321 ft | 21 kts | 354° |
| 2026-04-30 13:43 | 44.57337 | 26.08488 | 322 ft | 19 kts | 354° |
| 2026-04-30 13:43 | 44.57468 | 26.08469 | 321 ft | 12 kts | 354° |
| 2026-04-30 13:43 | 44.57514 | 26.08462 | 323 ft | 5 kts | 354° |
| 2026-04-30 13:43 | 44.57515 | 26.08462 | 323 ft | 0 kts | 354° |
| 2026-04-30 13:44 | 44.57543 | 26.08458 | 325 ft | 8 kts | 354° |
| 2026-04-30 13:44 | 44.57587 | 26.08451 | 325 ft | 11 kts | 354° |
| 2026-04-30 13:44 | 44.57659 | 26.08470 | 326 ft | 10 kts | 51° |
| 2026-04-30 13:45 | 44.57668 | 26.08517 | 324 ft | 0 kts | 83° |
| 2026-04-30 13:46 | 44.57668 | 26.08518 | 324 ft | 1 kts | 83° |
| 2026-04-30 13:46 | 44.57668 | 26.08520 | 324 ft | 0 kts | 84° |
| 2026-04-30 13:46 | 44.57670 | 26.08545 | 327 ft | 12 kts | 84° |
| 2026-04-30 13:47 | 44.57716 | 26.09149 | 321 ft | 116 kts | 84° |
| 2026-04-30 13:47 | 44.57831 | 26.10642 | 586 ft | 182 kts | 84° |
| 2026-04-30 13:47 | 44.57952 | 26.12426 | 1580 ft | 178 kts | 84° |
| 2026-04-30 13:47 | 44.58061 | 26.14121 | 2250 ft | 172 kts | 85° |
| 2026-04-30 13:48 | 44.58151 | 26.15916 | 3103 ft | 194 kts | 86° |
| 2026-04-30 13:48 | 44.58248 | 26.17853 | 4421 ft | 202 kts | 86° |
| 2026-04-30 13:48 | 44.58327 | 26.19883 | 5625 ft | 215 kts | 87° |
| 2026-04-30 13:48 | 44.58392 | 26.22000 | 6928 ft | 222 kts | 88° |
| 2026-04-30 13:49 | 44.58431 | 26.24145 | 8079 ft | 219 kts | 88° |
| 2026-04-30 13:49 | 44.58519 | 26.26383 | 8651 ft | 241 kts | 88° |
| 2026-04-30 13:49 | 44.58231 | 26.28805 | 8916 ft | 267 kts | 112° |
| 2026-04-30 13:49 | 44.57064 | 26.31017 | 9039 ft | 305 kts | 141° |
| 2026-04-30 13:50 | 44.55142 | 26.32497 | 9585 ft | 324 kts | 161° |
| 2026-04-30 13:50 | 44.50734 | 26.33870 | 11510 ft | 339 kts | 170° |
| 2026-04-30 13:50 | 44.48326 | 26.34468 | 11768 ft | 366 kts | 171° |
| 2026-04-30 13:51 | 44.45748 | 26.35051 | 11936 ft | 390 kts | 172° |
| 2026-04-30 13:51 | 44.43019 | 26.35263 | 12645 ft | 395 kts | 185° |
| 2026-04-30 13:51 | 44.40403 | 26.34302 | 13875 ft | 386 kts | 205° |
| 2026-04-30 13:51 | 44.38186 | 26.32203 | 14740 ft | 391 kts | 224° |
| 2026-04-30 13:52 | 44.36484 | 26.29146 | 15189 ft | 406 kts | 241° |
| 2026-04-30 13:52 | 44.35329 | 26.25573 | 16295 ft | 400 kts | 249° |
| 2026-04-30 13:52 | 44.34373 | 26.21904 | 17125 ft | 406 kts | 250° |
| 2026-04-30 13:52 | 44.33391 | 26.18114 | 17633 ft | 418 kts | 250° |
| 2026-04-30 13:53 | 44.32413 | 26.14304 | 18688 ft | 416 kts | 251° |
| 2026-04-30 13:53 | 44.31479 | 26.10436 | 19361 ft | 425 kts | 252° |
| 2026-04-30 13:53 | 44.30600 | 26.06478 | 20209 ft | 429 kts | 253° |
| 2026-04-30 13:53 | 44.29751 | 26.02460 | 21006 ft | 434 kts | 254° |
| 2026-04-30 13:54 | 44.28902 | 25.98400 | 21771 ft | 439 kts | 254° |
| 2026-04-30 13:54 | 44.28050 | 25.94341 | 22503 ft | 444 kts | 253° |
| 2026-04-30 13:54 | 44.27174 | 25.90184 | 23224 ft | 448 kts | 253° |
| 2026-04-30 13:54 | 44.26237 | 25.86021 | 23912 ft | 453 kts | 250° |
| 2026-04-30 13:55 | 44.24995 | 25.81955 | 24583 ft | 457 kts | 244° |
| 2026-04-30 13:55 | 44.23551 | 25.77971 | 25144 ft | 465 kts | 243° |
| 2026-04-30 13:55 | 44.22069 | 25.73885 | 25261 ft | 480 kts | 244° |
| 2026-04-30 13:55 | 44.20588 | 25.69632 | 25385 ft | 495 kts | 244° |
| 2026-04-30 13:56 | 44.19101 | 25.65284 | 25980 ft | 496 kts | 244° |
| 2026-04-30 13:56 | 44.17615 | 25.60970 | 26876 ft | 493 kts | 244° |
| 2026-04-30 13:56 | 44.16124 | 25.56676 | 27619 ft | 491 kts | 244° |
| 2026-04-30 13:56 | 44.14636 | 25.52405 | 28384 ft | 490 kts | 244° |
| 2026-04-30 13:57 | 44.13150 | 25.48142 | 29161 ft | 488 kts | 244° |
| 2026-04-30 13:57 | 44.11671 | 25.43900 | 29923 ft | 487 kts | 244° |
| 2026-04-30 13:57 | 44.10194 | 25.39672 | 30660 ft | 485 kts | 244° |
| 2026-04-30 13:57 | 44.08721 | 25.35459 | 31341 ft | 483 kts | 244° |
| 2026-04-30 13:58 | 44.07249 | 25.31259 | 32020 ft | 482 kts | 244° |
| 2026-04-30 13:58 | 44.04330 | 25.22947 | 33329 ft | 479 kts | 244° |
| 2026-04-30 13:58 | 44.02870 | 25.18796 | 33976 ft | 477 kts | 244° |
| 2026-04-30 13:59 | 44.01410 | 25.14648 | 34611 ft | 476 kts | 244° |
| 2026-04-30 13:59 | 43.99958 | 25.10533 | 35225 ft | 475 kts | 244° |
| 2026-04-30 13:59 | 43.98502 | 25.06421 | 35825 ft | 473 kts | 244° |
| 2026-04-30 13:59 | 43.97050 | 25.02330 | 36416 ft | 472 kts | 244° |
| 2026-04-30 14:00 | 43.95596 | 24.98236 | 36931 ft | 472 kts | 244° |
| 2026-04-30 14:00 | 43.92687 | 24.90045 | 37735 ft | 476 kts | 244° |
| 2026-04-30 14:00 | 43.91221 | 24.85926 | 37891 ft | 475 kts | 244° |
| 2026-04-30 14:01 | 43.88285 | 24.77693 | 37988 ft | 475 kts | 244° |
| 2026-04-30 14:01 | 43.85370 | 24.69544 | 37997 ft | 475 kts | 244° |
| 2026-04-30 14:02 | 43.82435 | 24.61358 | 37999 ft | 475 kts | 244° |
| 2026-04-30 14:02 | 43.79490 | 24.53162 | 38000 ft | 475 kts | 243° |
| 2026-04-30 14:03 | 43.76538 | 24.44974 | 38001 ft | 475 kts | 243° |
| 2026-04-30 14:03 | 43.73588 | 24.36807 | 38001 ft | 474 kts | 243° |
| 2026-04-30 14:04 | 43.69726 | 24.29594 | 37939 ft | 471 kts | 216° |
| 2026-04-30 14:04 | 43.66879 | 24.27420 | 37990 ft | 469 kts | 200° |
| 2026-04-30 14:04 | 43.63747 | 24.26096 | 38047 ft | 473 kts | 193° |
| 2026-04-30 14:05 | 43.57244 | 24.24506 | 38010 ft | 476 kts | 187° |
| 2026-04-30 14:05 | 43.50648 | 24.23721 | 38002 ft | 476 kts | 183° |
| 2026-04-30 14:06 | 43.40693 | 24.23158 | 37999 ft | 476 kts | 182° |
| 2026-04-30 14:07 | 43.30744 | 24.22785 | 38000 ft | 477 kts | 181° |
| 2026-04-30 14:08 | 43.20772 | 24.22459 | 38001 ft | 477 kts | 181° |
| 2026-04-30 14:08 | 43.10829 | 24.22139 | 38000 ft | 478 kts | 182° |
| 2026-04-30 14:09 | 43.04184 | 24.21748 | 38000 ft | 478 kts | 183° |
| 2026-04-30 14:10 | 42.94174 | 24.21088 | 38000 ft | 480 kts | 183° |
| 2026-04-30 14:10 | 42.87504 | 24.20659 | 37999 ft | 480 kts | 183° |
| 2026-04-30 14:11 | 42.80855 | 24.20227 | 37995 ft | 481 kts | 183° |
| 2026-04-30 14:11 | 42.74150 | 24.19792 | 38005 ft | 485 kts | 183° |
| 2026-04-30 14:12 | 42.67420 | 24.19357 | 38001 ft | 483 kts | 183° |
| 2026-04-30 14:12 | 42.60710 | 24.18923 | 38000 ft | 483 kts | 183° |
| 2026-04-30 14:13 | 42.53999 | 24.18491 | 37997 ft | 483 kts | 183° |
| 2026-04-30 14:13 | 42.47298 | 24.18059 | 38000 ft | 481 kts | 183° |
| 2026-04-30 14:14 | 42.40626 | 24.17688 | 37991 ft | 479 kts | 180° |
| 2026-04-30 14:14 | 42.33965 | 24.17232 | 37984 ft | 479 kts | 191° |
| 2026-04-30 14:15 | 42.27671 | 24.14443 | 38004 ft | 476 kts | 206° |
| 2026-04-30 14:15 | 42.21942 | 24.10053 | 37998 ft | 475 kts | 208° |
| 2026-04-30 14:15 | 42.18864 | 24.08447 | 37921 ft | 474 kts | 190° |
| 2026-04-30 14:16 | 42.15597 | 24.08139 | 37959 ft | 472 kts | 177° |
| 2026-04-30 14:16 | 42.08974 | 24.08864 | 38031 ft | 482 kts | 176° |
| 2026-04-30 14:17 | 42.02270 | 24.09277 | 38003 ft | 482 kts | 178° |
| 2026-04-30 14:17 | 41.95565 | 24.09679 | 38001 ft | 482 kts | 178° |
| 2026-04-30 14:18 | 41.88837 | 24.10099 | 38000 ft | 486 kts | 178° |
| 2026-04-30 14:18 | 41.78668 | 24.10725 | 37999 ft | 487 kts | 178° |
| 2026-04-30 14:19 | 41.68533 | 24.11350 | 38002 ft | 487 kts | 178° |
| 2026-04-30 14:20 | 41.61732 | 24.11769 | 38000 ft | 486 kts | 178° |
| 2026-04-30 14:20 | 41.51770 | 24.13516 | 38009 ft | 484 kts | 165° |
| 2026-04-30 14:21 | 41.45216 | 24.15659 | 38002 ft | 485 kts | 167° |
| 2026-04-30 14:22 | 41.35386 | 24.18735 | 38001 ft | 481 kts | 166° |
| 2026-04-30 14:22 | 41.25661 | 24.21975 | 37997 ft | 482 kts | 166° |
| 2026-04-30 14:23 | 41.12674 | 24.26299 | 38000 ft | 480 kts | 166° |
| 2026-04-30 14:24 | 41.02969 | 24.29526 | 38002 ft | 479 kts | 166° |
| 2026-04-30 14:25 | 40.90069 | 24.33801 | 38002 ft | 478 kts | 166° |
| 2026-04-30 14:26 | 40.80403 | 24.36994 | 37999 ft | 477 kts | 166° |
| 2026-04-30 14:27 | 40.70793 | 24.40158 | 37999 ft | 477 kts | 166° |
| 2026-04-30 14:27 | 40.64351 | 24.42274 | 37999 ft | 477 kts | 166° |
| 2026-04-30 14:28 | 40.54692 | 24.45438 | 38000 ft | 477 kts | 166° |
| 2026-04-30 14:28 | 40.48243 | 24.47546 | 38001 ft | 476 kts | 166° |
| 2026-04-30 14:29 | 40.36447 | 24.51390 | 38000 ft | 477 kts | 166° |
| 2026-04-30 14:31 | 40.20350 | 24.56614 | 38001 ft | 476 kts | 166° |
| 2026-04-30 14:31 | 40.10730 | 24.59724 | 38000 ft | 477 kts | 166° |
| 2026-04-30 14:32 | 40.01062 | 24.62839 | 38000 ft | 477 kts | 166° |
| 2026-04-30 14:33 | 39.94618 | 24.64911 | 38000 ft | 477 kts | 166° |
| 2026-04-30 14:33 | 39.88156 | 24.66985 | 37887 ft | 478 kts | 166° |
| 2026-04-30 14:33 | 39.84940 | 24.68016 | 37742 ft | 478 kts | 166° |
| 2026-04-30 14:34 | 39.81752 | 24.69036 | 37305 ft | 478 kts | 166° |
| 2026-04-30 14:34 | 39.78526 | 24.70068 | 37124 ft | 476 kts | 166° |
| 2026-04-30 14:34 | 39.72081 | 24.72126 | 37017 ft | 476 kts | 166° |
| 2026-04-30 14:35 | 39.62415 | 24.75205 | 37001 ft | 476 kts | 166° |
| 2026-04-30 14:36 | 39.55971 | 24.77253 | 37000 ft | 476 kts | 166° |
| 2026-04-30 14:36 | 39.49525 | 24.79298 | 37000 ft | 476 kts | 166° |
| 2026-04-30 14:37 | 39.43117 | 24.81327 | 37001 ft | 476 kts | 166° |
| 2026-04-30 14:37 | 39.36669 | 24.83364 | 37001 ft | 477 kts | 166° |
| 2026-04-30 14:38 | 39.30226 | 24.85397 | 37001 ft | 477 kts | 166° |